Time;durP1;ratioP1;P1;durP2;ratioP2;P2;SDS_P1;SDS_P2;PMS_P1;PMS_P2;Temp;Humidity;BMP_temperature;BMP_pressure;BME280_temperature;BME280_humidity;BME280_pressure;Samples;Min_cycle;Max_cycle;Signal;HPM_P1;HPM_P2
2023/10/31 00:01:04;;;;;;;9.40;5.93;;;;;;;13.60;59.65;94814.72;4197151;28;20087;-70
2023/10/31 00:03:05;;;;;;;11.93;6.10;;;;;;;13.58;60.11;94824.63;4205469;28;20055;-71
2023/10/31 00:05:08;;;;;;;9.10;5.10;;;;;;;13.58;59.66;94823.81;4194573;28;20052;-70
2023/10/31 00:07:10;;;;;;;9.55;6.22;;;;;;;13.38;60.51;94818.16;4215418;28;20409;-73
2023/10/31 00:09:12;;;;;;;15.32;6.15;;;;;;;13.37;60.76;94822.59;4208610;28;20048;-71
2023/10/31 00:11:13;;;;;;;17.58;5.45;;;;;;;13.43;60.30;94824.53;4191677;28;20044;-71
2023/10/31 00:13:15;;;;;;;11.27;5.60;;;;;;;13.47;59.60;94825.84;4215041;28;20488;-70
2023/10/31 00:15:17;;;;;;;10.88;5.55;;;;;;;13.56;59.97;94815.25;4214946;28;20052;-71
2023/10/31 00:17:19;;;;;;;10.38;5.15;;;;;;;13.51;59.75;94800.81;4196595;28;20048;-69
2023/10/31 00:19:21;;;;;;;11.75;5.63;;;;;;;13.54;59.65;94804.91;4212458;28;20135;-68
2023/10/31 00:21:22;;;;;;;9.02;4.88;;;;;;;13.56;59.41;94800.28;4196844;28;20050;-69
2023/10/31 00:23:26;;;;;;;10.82;5.18;;;;;;;13.59;59.53;94802.56;4214280;28;20125;-71
2023/10/31 00:25:28;;;;;;;9.85;4.93;;;;;;;13.59;59.04;94805.19;4207037;28;20465;-69
2023/10/31 00:27:30;;;;;;;8.98;5.32;;;;;;;13.63;59.38;94803.03;4211307;28;20120;-71
2023/10/31 00:29:32;;;;;;;9.20;5.05;;;;;;;13.67;58.90;94799.88;4196332;28;20211;-70
2023/10/31 00:31:34;;;;;;;8.18;4.85;;;;;;;13.72;58.81;94796.72;4199417;28;20051;-70
2023/10/31 00:33:37;;;;;;;8.73;5.03;;;;;;;13.72;58.87;94792.28;4202942;28;20048;-73
2023/10/31 00:35:39;;;;;;;8.75;4.63;;;;;;;13.76;58.70;94794.56;4213849;28;20694;-71
2023/10/31 00:37:40;;;;;;;13.88;5.30;;;;;;;13.74;59.17;94797.34;4214470;28;20093;-68
2023/10/31 00:39:42;;;;;;;10.15;4.68;;;;;;;13.72;59.10;94797.53;4213659;28;20044;-71
2023/10/31 00:41:46;;;;;;;6.45;4.63;;;;;;;13.78;58.81;94793.38;4210378;28;20127;-68
2023/10/31 00:43:49;;;;;;;13.43;5.60;;;;;;;13.71;58.88;94792.44;4214324;28;20048;-70
2023/10/31 00:45:51;;;;;;;7.80;5.03;;;;;;;13.62;59.22;94798.78;4213445;28;20074;-69
2023/10/31 00:47:53;;;;;;;9.95;5.10;;;;;;;13.61;59.23;94794.50;4212487;28;20500;-69
2023/10/31 00:49:55;;;;;;;9.80;4.93;;;;;;;13.63;59.41;94795.94;4214476;28;20060;-69
2023/10/31 00:51:57;;;;;;;8.80;5.10;;;;;;;13.62;59.48;94785.63;4195492;28;20044;-68
2023/10/31 00:54:00;;;;;;;7.75;4.93;;;;;;;13.49;59.70;94787.00;4206046;28;20512;-69
2023/10/31 00:56:02;;;;;;;12.88;5.15;;;;;;;13.43;59.52;94792.97;4209981;28;20108;-70
2023/10/31 00:58:04;;;;;;;12.75;4.72;;;;;;;13.42;59.54;94782.59;4214462;28;20040;-69
2023/10/31 01:00:09;;;;;;;8.23;4.47;;;;;;;13.44;59.82;94784.09;4193888;28;20464;-71
2023/10/31 01:02:11;;;;;;;9.77;4.93;;;;;;;13.50;59.63;94774.66;4195251;28;20048;-69
2023/10/31 01:04:13;;;;;;;9.68;4.78;;;;;;;13.56;59.55;94771.31;4196191;28;20044;-69
2023/10/31 01:06:16;;;;;;;9.18;4.85;;;;;;;13.60;59.31;94771.81;4214215;28;20045;-72
2023/10/31 01:08:18;;;;;;;10.10;5.50;;;;;;;13.54;59.17;94775.13;4208038;28;20048;-71
2023/10/31 01:10:21;;;;;;;8.57;4.80;;;;;;;13.52;59.35;94770.84;4208482;28;20048;-70
2023/10/31 01:12:23;;;;;;;6.40;4.70;;;;;;;13.50;59.11;94767.56;4213717;28;20140;-68
2023/10/31 01:14:24;;;;;;;8.82;4.65;;;;;;;13.47;59.83;94756.59;4213622;28;20051;-70
2023/10/31 01:16:26;;;;;;;7.68;4.80;;;;;;;13.49;59.36;94760.69;4213962;28;20052;-68
2023/10/31 01:18:28;;;;;;;11.70;4.82;;;;;;;13.51;59.39;94763.97;4179991;28;20049;-69
2023/10/31 01:20:30;;;;;;;11.25;4.72;;;;;;;13.48;59.69;94763.50;4211135;28;20048;-69
2023/10/31 01:22:31;;;;;;;9.30;4.97;;;;;;;13.45;59.28;94761.22;4194500;28;20055;-71
2023/10/31 01:24:33;;;;;;;8.05;4.45;;;;;;;13.41;59.38;94758.09;4193536;28;20053;-70
2023/10/31 01:26:35;;;;;;;8.00;4.40;;;;;;;13.39;59.29;94757.47;4214260;28;20046;-68
2023/10/31 01:28:37;;;;;;;10.32;4.78;;;;;;;13.38;59.44;94760.25;4205004;28;20094;-71
2023/10/31 01:30:39;;;;;;;10.38;4.82;;;;;;;13.36;59.49;94747.31;4205075;28;20049;-70
2023/10/31 01:32:41;;;;;;;9.77;5.10;;;;;;;13.40;59.78;94750.38;4194895;28;20099;-71
2023/10/31 01:34:43;;;;;;;12.50;4.80;;;;;;;13.39;59.44;94751.38;4193073;28;20091;-71
2023/10/31 01:36:44;;;;;;;8.52;4.97;;;;;;;13.35;59.93;94740.38;4196135;28;20055;-69
2023/10/31 01:38:47;;;;;;;8.55;4.82;;;;;;;13.36;59.40;94742.03;4209357;28;20049;-68
2023/10/31 01:40:50;;;;;;;11.68;4.93;;;;;;;13.34;59.60;94745.84;4204824;28;20047;-68
2023/10/31 01:42:52;;;;;;;11.13;4.90;;;;;;;13.32;59.45;94746.81;4213444;28;20044;-70
2023/10/31 01:44:54;;;;;;;10.48;4.90;;;;;;;13.33;59.79;94747.63;4211633;28;20215;-69
2023/10/31 01:46:56;;;;;;;9.77;4.75;;;;;;;13.31;59.87;94749.63;4201948;28;20046;-69
2023/10/31 01:48:58;;;;;;;11.77;5.03;;;;;;;13.32;59.84;94744.19;4212941;28;20072;-69
2023/10/31 01:51:04;;;;;;;11.43;5.32;;;;;;;13.33;59.86;94747.63;4212805;28;20061;-66
2023/10/31 01:53:06;;;;;;;14.15;5.53;;;;;;;13.34;59.72;94753.72;4178466;28;20088;-69
2023/10/31 01:55:09;;;;;;;10.93;5.97;;;;;;;13.32;60.35;94749.44;4195083;28;20499;-69
2023/10/31 01:57:11;;;;;;;11.80;5.13;;;;;;;13.30;60.14;94746.16;4195112;28;20127;-70
2023/10/31 01:59:12;;;;;;;11.98;5.28;;;;;;;13.26;60.12;94750.09;4201751;28;20049;-69
2023/10/31 02:01:15;;;;;;;10.60;5.40;;;;;;;13.24;60.19;94748.66;4211498;28;20055;-69
2023/10/31 02:03:17;;;;;;;10.57;5.45;;;;;;;13.21;60.13;94736.66;4213488;28;20082;-69
2023/10/31 02:05:19;;;;;;;15.85;5.30;;;;;;;13.21;60.21;94739.31;4213660;28;20047;-69
2023/10/31 02:07:21;;;;;;;11.93;5.38;;;;;;;13.19;60.62;94738.66;4210028;28;20072;-69
2023/10/31 02:09:27;;;;;;;6.97;4.85;;;;;;;13.18;60.49;94736.19;4212447;28;20052;-70
2023/10/31 02:11:29;;;;;;;14.10;6.05;;;;;;;13.20;60.61;94739.47;4213422;28;20535;-70
2023/10/31 02:13:30;;;;;;;9.45;5.30;;;;;;;13.08;60.45;94729.34;4203742;28;20481;-70
2023/10/31 02:15:33;;;;;;;14.23;5.93;;;;;;;13.03;60.84;94739.56;4194939;28;20094;-70
2023/10/31 02:17:35;;;;;;;9.90;6.00;;;;;;;12.87;61.24;94735.22;4202535;28;20052;-69
2023/10/31 02:19:37;;;;;;;8.65;5.13;;;;;;;12.82;61.89;94736.72;4213546;28;20517;-69
2023/10/31 02:21:39;;;;;;;10.30;5.43;;;;;;;12.88;61.49;94734.25;4205606;28;20110;-68
2023/10/31 02:23:40;;;;;;;8.93;5.60;;;;;;;12.94;61.51;94727.44;4189407;28;20485;-69
2023/10/31 02:25:42;;;;;;;12.60;5.70;;;;;;;13.01;61.18;94727.56;4193445;28;20044;-68
2023/10/31 02:27:44;;;;;;;9.50;6.00;;;;;;;12.98;61.29;94722.69;4204755;28;20059;-68
2023/10/31 02:29:46;;;;;;;12.45;5.85;;;;;;;12.98;61.57;94720.84;4211468;28;20516;-68
2023/10/31 02:31:48;;;;;;;11.70;5.68;;;;;;;12.96;61.56;94725.47;4210072;28;20056;-68
2023/10/31 02:33:50;;;;;;;11.52;6.30;;;;;;;12.89;61.72;94727.16;4192065;28;20607;-70
2023/10/31 02:35:52;;;;;;;10.60;5.50;;;;;;;12.85;61.86;94725.88;4213641;28;20048;-68
2023/10/31 02:37:54;;;;;;;12.68;5.95;;;;;;;12.88;61.92;94726.34;4213035;28;20048;-70
2023/10/31 02:39:56;;;;;;;11.95;6.50;;;;;;;12.96;61.74;94719.41;4194018;28;20037;-69
2023/10/31 02:41:57;;;;;;;12.80;7.85;;;;;;;12.98;61.26;94722.69;4193170;28;20056;-69
2023/10/31 02:43:59;;;;;;;13.05;6.05;;;;;;;12.95;61.22;94725.63;4212542;28;20117;-71
2023/10/31 02:46:01;;;;;;;11.18;5.70;;;;;;;12.75;61.52;94723.44;4195831;28;20052;-67
2023/10/31 02:48:03;;;;;;;14.35;6.40;;;;;;;12.72;62.16;94725.59;4212252;28;20048;-68
2023/10/31 02:50:06;;;;;;;8.65;5.70;;;;;;;12.68;61.92;94725.13;4212834;28;20464;-70
2023/10/31 02:52:07;;;;;;;12.43;6.07;;;;;;;12.52;62.51;94726.03;4201221;28;20519;-69
2023/10/31 02:54:09;;;;;;;11.18;6.38;;;;;;;12.50;62.86;94731.44;4208236;28;20056;-69
2023/10/31 02:56:11;;;;;;;12.35;5.95;;;;;;;12.58;62.71;94730.56;4200196;28;20050;-70
2023/10/31 02:58:13;;;;;;;9.27;5.32;;;;;;;12.63;62.43;94733.53;4193705;28;20067;-69
2023/10/31 03:00:15;;;;;;;18.70;6.10;;;;;;;12.66;62.45;94729.72;4198240;28;20036;-70
2023/10/31 03:02:17;;;;;;;10.45;5.55;;;;;;;12.69;62.30;94719.69;4211304;28;20048;-68
2023/10/31 03:04:19;;;;;;;12.90;5.90;;;;;;;12.73;61.97;94727.22;4212211;28;20102;-67
2023/10/31 03:06:22;;;;;;;9.73;5.63;;;;;;;12.74;61.61;94728.88;4212061;28;20493;-68
2023/10/31 03:08:24;;;;;;;9.40;5.65;;;;;;;12.63;62.14;94730.91;4212108;28;20415;-68
2023/10/31 03:10:26;;;;;;;9.85;5.80;;;;;;;12.64;62.16;94726.44;4212158;28;20048;-69
2023/10/31 03:12:28;;;;;;;8.77;5.35;;;;;;;12.64;62.25;94735.16;4212500;28;20686;-69
2023/10/31 03:14:30;;;;;;;9.80;4.95;;;;;;;12.66;62.24;94732.34;4211090;28;20052;-69
2023/10/31 03:16:32;;;;;;;9.07;5.25;;;;;;;12.69;61.92;94729.38;4211781;28;20058;-68
2023/10/31 03:18:34;;;;;;;14.00;5.72;;;;;;;12.73;61.82;94727.22;4209126;28;20048;-68
2023/10/31 03:20:37;;;;;;;9.30;5.72;;;;;;;12.49;61.84;94728.97;4210543;28;20727;-67
2023/10/31 03:22:39;;;;;;;11.30;5.27;;;;;;;12.09;62.82;94723.69;4211152;28;20048;-68
2023/10/31 03:24:41;;;;;;;11.60;5.75;;;;;;;12.02;63.75;94717.47;4197614;28;20287;-69
2023/10/31 03:26:43;;;;;;;13.73;5.55;;;;;;;12.05;64.07;94711.88;4216192;28;20044;-69
2023/10/31 03:28:46;;;;;;;11.07;5.82;;;;;;;12.13;63.91;94705.78;4215399;28;20067;-69
2023/10/31 03:30:48;;;;;;;9.25;5.40;;;;;;;12.28;63.29;94701.47;4206900;28;20044;-69
2023/10/31 03:32:51;;;;;;;12.43;5.68;;;;;;;12.36;63.31;94691.91;4213796;28;20106;-70
2023/10/31 03:34:53;;;;;;;;;;;;;;;12.37;63.14;94690.91;4189197;28;20048;-68
2023/10/31 03:36:55;;;;;;;13.85;6.03;;;;;;;12.39;63.16;94696.81;4211459;28;20407;-69
2023/10/31 03:38:57;;;;;;;16.90;6.53;;;;;;;12.39;63.05;94692.41;4199420;28;20048;-70
2023/10/31 03:40:59;;;;;;;11.93;6.28;;;;;;;12.45;63.04;94696.97;4199809;28;20050;-69
2023/10/31 03:43:02;;;;;;;14.35;6.22;;;;;;;12.46;62.71;94697.78;4217525;28;20097;-69
2023/10/31 03:45:04;;;;;;;11.88;6.32;;;;;;;12.46;62.96;94698.59;4207454;28;20052;-68
2023/10/31 03:47:06;;;;;;;10.10;6.85;;;;;;;12.46;62.61;94703.84;4213084;28;20557;-71
2023/10/31 03:49:08;;;;;;;15.38;6.90;;;;;;;11.96;63.59;94719.91;4217551;28;20056;-70
2023/10/31 03:51:10;;;;;;;11.98;6.82;;;;;;;11.31;65.67;94725.97;4217686;28;20070;-70
2023/10/31 03:53:12;;;;;;;13.23;7.82;;;;;;;10.74;66.98;94724.09;4208227;28;20085;-70
2023/10/31 03:55:15;;;;;;;14.95;9.02;;;;;;;10.20;69.04;94721.72;4208554;28;20136;-68
2023/10/31 03:57:17;;;;;;;15.88;9.68;;;;;;;10.25;69.23;94716.81;4204728;28;20097;-69
2023/10/31 03:59:20;;;;;;;20.15;11.02;;;;;;;9.97;70.16;94717.00;4199312;28;20423;-66
2023/10/31 04:01:24;;;;;;;18.05;10.63;;;;;;;9.84;70.08;94712.19;4213511;28;20202;-70
2023/10/31 04:03:25;;;;;;;19.90;11.30;;;;;;;9.95;69.96;94710.28;4214194;28;20063;-70
2023/10/31 04:05:27;;;;;;;14.88;10.57;;;;;;;10.16;69.73;94697.63;4217932;28;20138;-69
2023/10/31 04:07:29;;;;;;;14.63;10.25;;;;;;;10.46;69.39;94713.84;4217014;28;20542;-66
2023/10/31 04:09:31;;;;;;;14.15;9.43;;;;;;;10.72;68.18;94715.56;4207643;28;20044;-69
2023/10/31 04:11:33;;;;;;;16.40;10.10;;;;;;;10.90;67.22;94711.00;4209100;28;20032;-71
2023/10/31 04:13:34;;;;;;;15.85;9.70;;;;;;;11.02;66.51;94708.91;4197001;28;20053;-68
2023/10/31 04:15:36;;;;;;;15.05;10.20;;;;;;;11.15;66.88;94705.81;4213110;28;20044;-69
2023/10/31 04:17:38;;;;;;;18.65;9.65;;;;;;;11.31;66.37;94703.19;4210655;28;20481;-68
2023/10/31 04:19:40;;;;;;;16.33;9.02;;;;;;;11.42;65.56;94695.03;4213991;28;20075;-68
2023/10/31 04:21:42;;;;;;;17.30;9.60;;;;;;;11.46;65.60;94691.09;4217600;28;20066;-70
2023/10/31 04:23:43;;;;;;;19.42;9.25;;;;;;;11.54;65.63;94681.56;4213000;28;20101;-68
2023/10/31 04:25:46;;;;;;;17.38;10.07;;;;;;;11.59;64.66;94674.81;4215117;28;20500;-70
2023/10/31 04:27:48;;;;;;;19.73;9.15;;;;;;;11.64;65.04;94683.03;4213745;28;20407;-70
2023/10/31 04:29:50;;;;;;;19.20;9.40;;;;;;;11.74;65.99;94680.22;4215402;28;20556;-68
2023/10/31 04:31:51;;;;;;;15.38;9.27;;;;;;;11.77;65.34;94686.97;4216663;28;20429;-70
2023/10/31 04:33:53;;;;;;;18.83;9.05;;;;;;;11.68;64.75;94688.78;4190709;28;20131;-70
2023/10/31 04:35:55;;;;;;;17.42;9.35;;;;;;;11.65;65.30;94689.09;4210945;28;20055;-71
2023/10/31 04:37:57;;;;;;;14.55;8.77;;;;;;;11.70;65.09;94681.53;4214413;28;20492;-71
2023/10/31 04:39:59;;;;;;;16.27;8.30;;;;;;;11.78;65.00;94678.91;4194517;28;20055;-69
2023/10/31 04:42:03;;;;;;;15.50;8.45;;;;;;;11.92;64.87;94684.50;4184307;28;20044;-69
2023/10/31 04:44:06;;;;;;;18.98;8.43;;;;;;;11.98;64.61;94682.03;4192558;28;20075;-67
2023/10/31 04:46:10;;;;;;;17.80;8.60;;;;;;;12.06;64.39;94683.78;4209428;28;20523;-69
2023/10/31 04:48:12;;;;;;;17.55;8.50;;;;;;;12.07;64.33;94681.00;4212180;28;20048;-67
2023/10/31 04:50:15;;;;;;;26.90;9.60;;;;;;;11.96;63.67;94696.28;4214439;28;20052;-69
2023/10/31 04:52:17;;;;;;;18.60;8.55;;;;;;;11.64;64.97;94696.16;4212487;28;20113;-69
2023/10/31 04:54:19;;;;;;;20.13;9.70;;;;;;;11.60;65.13;94707.16;4193171;28;20049;-68
2023/10/31 04:56:20;;;;;;;14.63;9.38;;;;;;;11.64;65.11;94711.09;4196684;28;20481;-68
2023/10/31 04:58:22;;;;;;;18.38;9.98;;;;;;;11.26;66.02;94713.38;4212495;28;20172;-70
2023/10/31 05:00:24;;;;;;;16.50;10.90;;;;;;;10.79;66.97;94725.22;4212485;28;20052;-71
2023/10/31 05:02:26;;;;;;;19.70;11.48;;;;;;;10.40;67.87;94723.13;4195815;28;20045;-70
2023/10/31 05:04:28;;;;;;;18.42;12.63;;;;;;;9.87;69.65;94712.84;4207662;28;20040;-69
2023/10/31 05:06:30;;;;;;;21.67;13.23;;;;;;;10.00;70.24;94718.47;4214606;28;20097;-69
2023/10/31 05:08:32;;;;;;;24.88;11.68;;;;;;;10.13;69.55;94713.66;4194854;28;20044;-71
2023/10/31 05:10:34;;;;;;;21.23;12.10;;;;;;;10.02;68.95;94711.28;4202989;28;20123;-71
2023/10/31 05:12:36;;;;;;;24.45;12.27;;;;;;;9.99;69.81;94701.16;4212249;28;20052;-71
2023/10/31 05:14:40;;;;;;;26.83;11.45;;;;;;;10.26;69.70;94705.38;4195917;28;20492;-70
2023/10/31 05:16:43;;;;;;;22.50;11.57;;;;;;;10.56;68.91;94704.06;4193782;28;20112;-71
2023/10/31 05:18:45;;;;;;;22.70;12.02;;;;;;;10.80;67.89;94716.41;4213328;28;20507;-70
2023/10/31 05:20:47;;;;;;;20.30;11.35;;;;;;;11.00;66.40;94703.81;4214057;28;20036;-69
2023/10/31 05:22:50;;;;;;;20.10;11.35;;;;;;;11.20;66.50;94708.78;4214060;28;20121;-69
2023/10/31 05:24:51;;;;;;;20.88;11.85;;;;;;;11.36;65.82;94716.66;4214452;28;20052;-70
2023/10/31 05:26:53;;;;;;;18.33;11.23;;;;;;;11.50;65.08;94720.41;4213398;28;20059;-72
2023/10/31 05:28:57;;;;;;;21.48;11.52;;;;;;;11.57;64.66;94716.19;4180826;28;20483;-70
2023/10/31 05:30:59;;;;;;;21.20;11.25;;;;;;;11.66;64.40;94706.50;4214703;28;20512;-70
2023/10/31 05:33:00;;;;;;;18.58;10.77;;;;;;;11.70;64.15;94707.78;4208091;28;20127;-72
2023/10/31 05:35:02;;;;;;;17.75;11.05;;;;;;;11.83;64.23;94717.78;4195852;28;20106;-70
2023/10/31 05:37:06;;;;;;;20.65;11.63;;;;;;;11.88;63.63;94721.56;4214309;28;20123;-72
2023/10/31 05:39:08;;;;;;;22.42;12.43;;;;;;;11.94;63.24;94729.75;4214343;28;20414;-71
2023/10/31 05:41:10;;;;;;;20.38;11.98;;;;;;;11.96;63.50;94722.53;4214154;28;20052;-72
2023/10/31 05:43:12;;;;;;;19.52;11.95;;;;;;;12.07;63.73;94714.34;4196019;28;20417;-72
2023/10/31 05:45:15;;;;;;;17.17;10.90;;;;;;;12.14;63.49;94715.28;4191886;28;20076;-70
2023/10/31 05:47:17;;;;;;;23.73;10.88;;;;;;;12.22;62.92;94712.66;4204754;28;20044;-70
2023/10/31 05:49:19;;;;;;;21.80;12.05;;;;;;;11.98;63.40;94718.78;4193417;28;20270;-71
2023/10/31 05:51:21;;;;;;;25.30;12.23;;;;;;;11.81;63.89;94730.25;4194761;28;20102;-70
2023/10/31 05:53:23;;;;;;;24.05;16.27;;;;;;;11.12;65.73;94735.81;4210915;28;20071;-71
2023/10/31 05:55:25;;;;;;;24.13;14.35;;;;;;;11.13;66.70;94729.56;4203361;28;20051;-71
2023/10/31 05:57:28;;;;;;;24.42;15.23;;;;;;;11.37;65.98;94743.69;4214025;28;20055;-70
2023/10/31 05:59:32;;;;;;;39.20;16.83;;;;;;;11.26;65.92;94747.47;4212328;28;20055;-72
2023/10/31 06:01:37;;;;;;;27.52;15.95;;;;;;;11.39;65.59;94746.97;4213158;28;20086;-72
2023/10/31 06:03:43;;;;;;;28.45;15.57;;;;;;;11.28;65.98;94753.38;4213704;28;20052;-71
2023/10/31 06:05:46;;;;;;;27.90;16.55;;;;;;;10.23;68.29;94765.91;4212692;28;20056;-70
2023/10/31 06:07:48;;;;;;;31.08;15.35;;;;;;;10.39;68.86;94758.16;4203607;28;20516;-71
2023/10/31 06:09:50;;;;;;;28.55;16.30;;;;;;;10.68;68.53;94758.78;4195274;28;20135;-72
2023/10/31 06:11:51;;;;;;;24.02;14.60;;;;;;;11.02;67.38;94762.16;4209279;28;20052;-71
2023/10/31 06:13:54;;;;;;;24.15;14.60;;;;;;;11.32;66.36;94767.78;4208818;28;20470;-72
2023/10/31 06:15:55;;;;;;;23.50;13.30;;;;;;;11.62;65.39;94762.91;4182465;28;20469;-71
2023/10/31 06:18:02;;;;;;;25.70;13.80;;;;;;;11.82;64.80;94751.06;4188228;28;20121;-71
2023/10/31 06:20:06;;;;;;;23.30;12.65;;;;;;;12.01;64.07;94757.81;4210989;28;20502;-72
2023/10/31 06:22:12;;;;;;;24.70;13.52;;;;;;;12.12;63.78;94751.41;4194282;28;20049;-70
2023/10/31 06:24:13;;;;;;;25.27;14.23;;;;;;;11.81;64.73;94746.81;4191299;28;20103;-71
2023/10/31 06:26:15;;;;;;;28.58;12.85;;;;;;;11.69;65.48;94748.94;4210828;28;20044;-71
2023/10/31 06:28:17;;;;;;;22.48;13.35;;;;;;;11.42;65.92;94752.72;4212832;28;20051;-72
2023/10/31 06:30:19;;;;;;;26.90;12.45;;;;;;;11.61;66.18;94756.00;4206765;28;20416;-72
2023/10/31 06:32:29;;;;;;;22.75;12.38;;;;;;;11.92;65.58;94755.38;4212873;28;20048;-71
2023/10/31 06:34:31;;;;;;;23.10;11.98;;;;;;;12.20;64.68;94761.09;4210133;28;20056;-70
2023/10/31 06:36:33;;;;;;;21.65;11.75;;;;;;;12.44;63.80;94754.94;4210606;28;20453;-71
2023/10/31 06:38:35;;;;;;;19.55;11.35;;;;;;;12.68;62.97;94744.31;4201547;28;20114;-71
2023/10/31 06:40:36;;;;;;;21.10;11.82;;;;;;;12.80;62.44;94744.78;4202867;28;20044;-72
2023/10/31 06:42:38;;;;;;;20.30;12.77;;;;;;;13.00;62.15;94747.81;4207884;28;20036;-72
2023/10/31 06:44:40;;;;;;;22.05;10.38;;;;;;;13.18;61.51;94744.09;4199709;28;20519;-72
2023/10/31 06:46:44;;;;;;;20.80;10.75;;;;;;;13.32;61.26;94738.94;4195175;28;20520;-71
2023/10/31 06:48:46;;;;;;;32.10;12.60;;;;;;;13.43;60.91;94742.97;4211541;28;20101;-71
2023/10/31 06:50:48;;;;;;;22.48;11.45;;;;;;;13.41;61.29;94739.69;4205408;28;20484;-70
2023/10/31 06:52:50;;;;;;;17.50;11.25;;;;;;;13.48;61.11;94729.28;4194801;28;20413;-72
2023/10/31 06:54:52;;;;;;;16.10;10.93;;;;;;;13.62;60.79;94736.41;4210473;28;20131;-70
2023/10/31 06:56:54;;;;;;;18.65;10.90;;;;;;;13.78;60.24;94732.81;4210196;28;20408;-70
2023/10/31 06:58:56;;;;;;;30.42;12.10;;;;;;;13.89;60.17;94737.66;4210894;28;20040;-71
2023/10/31 07:00:59;;;;;;;17.85;10.40;;;;;;;14.03;59.59;94735.25;4211444;28;20044;-71
2023/10/31 07:03:06;;;;;;;21.15;11.25;;;;;;;14.08;59.07;94738.16;4207986;28;20047;-73
2023/10/31 07:05:08;;;;;;;22.80;12.40;;;;;;;13.95;59.62;94735.31;4188467;28;20053;-73
2023/10/31 07:07:10;;;;;;;30.30;13.45;;;;;;;13.70;60.00;94744.25;4209756;28;20052;-71
2023/10/31 07:09:12;;;;;;;25.15;13.02;;;;;;;13.37;61.37;94734.97;4194680;28;20418;-72
2023/10/31 07:11:14;;;;;;;26.15;12.20;;;;;;;13.15;61.74;94733.91;4212373;28;20044;-74
2023/10/31 07:13:16;;;;;;;21.42;12.25;;;;;;;13.10;62.28;94719.47;4193780;28;20066;-72
2023/10/31 07:15:18;;;;;;;21.92;11.38;;;;;;;13.28;62.39;94735.00;4211431;28;20044;-72
2023/10/31 07:17:20;;;;;;;19.67;10.45;;;;;;;13.55;61.77;94726.75;4212552;28;20044;-72
2023/10/31 07:19:22;;;;;;;20.92;12.05;;;;;;;13.79;61.03;94731.84;4212797;28;20063;-70
2023/10/31 07:21:24;;;;;;;22.83;11.20;;;;;;;13.83;60.41;94727.84;4210100;28;20040;-72
2023/10/31 07:23:25;;;;;;;24.50;11.45;;;;;;;13.79;60.44;94731.84;4213074;28;20466;-73
2023/10/31 07:25:28;;;;;;;19.27;11.40;;;;;;;13.93;60.30;94728.41;4194730;28;20055;-71
2023/10/31 07:27:31;;;;;;;23.10;11.38;;;;;;;14.14;59.94;94725.06;4199230;28;20128;-72
2023/10/31 07:29:33;;;;;;;;;;;;;;;14.37;59.12;94725.97;4178141;28;20052;-70
2023/10/31 07:31:38;;;;;;;20.25;11.43;;;;;;;14.61;58.27;94733.66;4212557;28;19920;-73
2023/10/31 07:33:40;;;;;;;24.00;12.70;;;;;;;14.83;58.01;94731.09;4206516;28;20051;-73
2023/10/31 07:35:42;;;;;;;15.68;11.00;;;;;;;15.01;57.38;94725.41;4212889;28;20423;-72
2023/10/31 07:37:44;;;;;;;19.55;11.85;;;;;;;15.10;56.98;94722.50;4212930;28;20044;-73
2023/10/31 07:39:46;;;;;;;20.63;11.98;;;;;;;15.19;56.96;94717.09;4195195;28;20059;-75
2023/10/31 07:41:47;;;;;;;17.27;11.15;;;;;;;15.33;56.51;94710.94;4212028;28;20073;-73
2023/10/31 07:43:51;;;;;;;22.80;11.95;;;;;;;15.51;56.06;94719.25;4211115;28;20476;-72
2023/10/31 07:45:52;;;;;;;26.83;11.50;;;;;;;15.66;55.50;94713.06;4209255;28;20059;-73
2023/10/31 07:47:54;;;;;;;18.27;12.07;;;;;;;15.83;55.24;94714.50;4202011;28;20044;-73
2023/10/31 07:49:57;;;;;;;18.58;12.32;;;;;;;15.93;55.30;94704.38;4207550;28;20105;-72
2023/10/31 07:51:59;;;;;;;24.00;11.52;;;;;;;16.04;54.81;94702.22;4201344;28;20401;-74
2023/10/31 07:54:01;;;;;;;27.25;11.57;;;;;;;16.14;54.45;94705.34;4211247;28;20044;-71
2023/10/31 07:56:03;;;;;;;18.52;10.25;;;;;;;16.09;53.74;94699.81;4189396;28;20516;-73
2023/10/31 07:58:05;;;;;;;22.48;11.32;;;;;;;16.03;54.29;94695.31;4210235;28;20048;-73
2023/10/31 08:00:11;;;;;;;24.33;10.55;;;;;;;16.10;54.58;94694.34;4210494;28;20059;-74
2023/10/31 08:02:14;;;;;;;31.40;11.85;;;;;;;16.21;54.56;94690.34;4211495;28;20492;-72
2023/10/31 08:04:17;;;;;;;19.52;11.32;;;;;;;16.26;54.13;94682.66;4210871;28;20052;-71
2023/10/31 08:06:19;;;;;;;20.37;10.70;;;;;;;16.31;54.15;94679.44;4209426;28;20052;-73
2023/10/31 08:08:22;;;;;;;15.53;9.30;;;;;;;16.48;53.98;94679.94;4188750;28;20044;-73
2023/10/31 08:10:24;;;;;;;18.27;9.93;;;;;;;16.49;53.66;94685.00;4213008;28;20281;-72
2023/10/31 08:12:25;;;;;;;22.23;10.07;;;;;;;16.51;53.90;94682.19;4214982;28;20040;-72
2023/10/31 08:14:27;;;;;;;23.98;9.52;;;;;;;16.34;54.64;94682.50;4211458;28;20272;-74
2023/10/31 08:16:29;;;;;;;15.63;9.95;;;;;;;16.37;54.58;94673.38;4211678;28;20052;-73
2023/10/31 08:18:31;;;;;;;15.02;9.27;;;;;;;16.55;54.32;94675.50;4212823;28;20473;-72
2023/10/31 08:20:33;;;;;;;20.90;9.80;;;;;;;16.75;53.77;94673.72;4196263;28;20070;-74
2023/10/31 08:22:38;;;;;;;14.40;8.98;;;;;;;16.99;53.53;94671.59;4205970;28;20045;-72
2023/10/31 08:24:41;;;;;;;16.75;9.43;;;;;;;17.17;52.84;94658.63;4194136;28;20044;-73
2023/10/31 08:26:44;;;;;;;20.42;9.10;;;;;;;17.34;52.27;94658.25;4213209;28;20048;-72
2023/10/31 08:28:46;;;;;;;15.43;9.80;;;;;;;17.54;52.01;94652.97;4214730;28;20052;-74
2023/10/31 08:30:48;;;;;;;18.75;9.23;;;;;;;17.66;51.62;94653.16;4214869;28;20047;-74
2023/10/31 08:32:49;;;;;;;19.77;8.75;;;;;;;17.81;51.11;94643.19;4211469;28;20052;-71
2023/10/31 08:34:51;;;;;;;18.90;9.07;;;;;;;17.92;51.15;94639.94;4196088;28;20087;-72
2023/10/31 08:36:58;;;;;;;15.68;8.75;;;;;;;17.95;50.59;94631.56;4209138;28;20101;-73
2023/10/31 08:39:00;;;;;;;13.02;8.80;;;;;;;17.97;50.48;94637.50;4213001;28;20052;-73
2023/10/31 08:41:02;;;;;;;17.27;8.32;;;;;;;18.06;50.04;94630.13;4197393;28;20516;-75
2023/10/31 08:43:06;;;;;;;15.30;8.50;;;;;;;18.15;49.96;94633.38;4215033;28;20056;-72
2023/10/31 08:45:08;;;;;;;;;;;;;;;18.22;49.25;94628.91;4207057;28;20489;-74
2023/10/31 08:47:12;;;;;;;13.90;8.25;;;;;;;18.30;49.55;94626.00;4214693;28;20387;-73
2023/10/31 08:49:17;;;;;;;14.45;8.55;;;;;;;18.40;49.36;94615.75;4211078;28;20056;-72
2023/10/31 08:51:18;;;;;;;17.08;7.25;;;;;;;18.55;49.02;94606.75;4214869;28;20044;-73
2023/10/31 08:53:20;;;;;;;12.70;7.38;;;;;;;18.56;48.65;94611.84;4214588;28;20055;-69
2023/10/31 08:55:23;;;;;;;16.45;7.55;;;;;;;18.58;48.76;94604.50;4184581;28;20048;-75
2023/10/31 08:57:24;;;;;;;17.08;8.23;;;;;;;18.57;48.26;94607.34;4212652;28;20052;-73
2023/10/31 08:59:26;;;;;;;12.77;8.00;;;;;;;18.60;47.93;94609.56;4213678;28;20117;-72
2023/10/31 09:01:28;;;;;;;14.38;8.23;;;;;;;18.58;47.86;94606.31;4214427;28;20476;-72
2023/10/31 09:03:30;;;;;;;13.80;7.25;;;;;;;18.76;48.10;94597.66;4196163;28;20064;-73
2023/10/31 09:05:33;;;;;;;14.07;7.32;;;;;;;18.89;47.89;94596.81;4213030;28;20093;-73
2023/10/31 09:07:35;;;;;;;15.93;7.25;;;;;;;19.02;47.51;94584.28;4192646;28;20124;-71
2023/10/31 09:09:38;;;;;;;16.52;7.35;;;;;;;19.20;47.00;94578.22;4196756;28;20052;-73
2023/10/31 09:11:40;;;;;;;14.15;7.38;;;;;;;19.23;46.57;94572.50;4204099;28;20055;-73
2023/10/31 09:13:41;;;;;;;13.93;8.27;;;;;;;19.11;46.64;94574.19;4212324;28;20058;-75
2023/10/31 09:15:45;;;;;;;22.13;7.55;;;;;;;18.84;47.34;94573.53;4195721;28;20135;-71
2023/10/31 09:17:48;;;;;;;14.63;6.20;;;;;;;19.02;47.27;94567.53;4214561;28;20561;-73
2023/10/31 09:19:53;;;;;;;15.07;5.93;;;;;;;19.14;46.63;94565.00;4214191;28;20059;-73
2023/10/31 09:21:55;;;;;;;14.27;6.15;;;;;;;18.74;47.37;94568.69;4200765;28;20048;-72
2023/10/31 09:23:57;;;;;;;13.35;6.22;;;;;;;18.51;48.11;94565.75;4208294;28;20520;-73
2023/10/31 09:25:59;;;;;;;12.70;6.32;;;;;;;18.30;48.89;94559.69;4210921;28;20076;-73
2023/10/31 09:28:01;;;;;;;17.40;6.03;;;;;;;18.57;48.39;94547.13;4202103;28;20127;-72